sensor_id;sensor_type;location;lat;lon;timestamp;P1;durP1;ratioP1;P2;durP2;ratioP2
18651;SDS011;9455;54.302;10.124;2022-09-29T00:01:36;13.03;;;7.20;;
18651;SDS011;9455;54.302;10.124;2022-09-29T00:04:03;10.63;;;5.77;;
18651;SDS011;9455;54.302;10.124;2022-09-29T00:06:29;8.47;;;5.80;;
18651;SDS011;9455;54.302;10.124;2022-09-29T00:08:56;9.00;;;6.30;;
18651;SDS011;9455;54.302;10.124;2022-09-29T00:11:24;6.90;;;5.97;;
18651;SDS011;9455;54.302;10.124;2022-09-29T00:13:51;9.37;;;6.73;;
18651;SDS011;9455;54.302;10.124;2022-09-29T00:16:17;8.33;;;6.40;;
18651;SDS011;9455;54.302;10.124;2022-09-29T00:18:44;8.43;;;6.83;;
18651;SDS011;9455;54.302;10.124;2022-09-29T00:21:12;6.90;;;6.20;;
18651;SDS011;9455;54.302;10.124;2022-09-29T00:23:41;9.03;;;6.57;;
18651;SDS011;9455;54.302;10.124;2022-09-29T00:26:08;14.63;;;5.87;;
18651;SDS011;9455;54.302;10.124;2022-09-29T00:28:38;6.90;;;6.20;;
18651;SDS011;9455;54.302;10.124;2022-09-29T00:31:07;9.73;;;6.97;;
18651;SDS011;9455;54.302;10.124;2022-09-29T00:33:36;8.50;;;6.47;;
18651;SDS011;9455;54.302;10.124;2022-09-29T00:36:04;8.43;;;6.43;;
18651;SDS011;9455;54.302;10.124;2022-09-29T00:38:32;9.70;;;6.17;;
18651;SDS011;9455;54.302;10.124;2022-09-29T00:40:59;11.10;;;6.70;;
18651;SDS011;9455;54.302;10.124;2022-09-29T00:46:29;8.57;;;6.93;;
18651;SDS011;9455;54.302;10.124;2022-09-29T00:49:01;8.57;;;6.50;;
18651;SDS011;9455;54.302;10.124;2022-09-29T00:51:31;13.77;;;9.43;;
18651;SDS011;9455;54.302;10.124;2022-09-29T00:54:00;11.13;;;6.93;;
18651;SDS011;9455;54.302;10.124;2022-09-29T00:56:27;11.93;;;6.97;;
18651;SDS011;9455;54.302;10.124;2022-09-29T00:58:57;11.63;;;7.13;;
18651;SDS011;9455;54.302;10.124;2022-09-29T01:01:27;9.23;;;7.10;;
18651;SDS011;9455;54.302;10.124;2022-09-29T01:03:56;10.33;;;7.60;;
18651;SDS011;9455;54.302;10.124;2022-09-29T01:06:28;12.50;;;8.73;;
18651;SDS011;9455;54.302;10.124;2022-09-29T01:08:59;11.20;;;8.23;;
18651;SDS011;9455;54.302;10.124;2022-09-29T01:11:29;13.00;;;7.70;;
18651;SDS011;9455;54.302;10.124;2022-09-29T01:13:57;12.50;;;7.33;;
18651;SDS011;9455;54.302;10.124;2022-09-29T01:16:27;12.57;;;9.00;;
18651;SDS011;9455;54.302;10.124;2022-09-29T01:18:55;12.10;;;8.27;;
18651;SDS011;9455;54.302;10.124;2022-09-29T01:21:23;15.17;;;9.50;;
18651;SDS011;9455;54.302;10.124;2022-09-29T01:24:04;15.43;;;8.83;;
18651;SDS011;9455;54.302;10.124;2022-09-29T01:26:56;13.23;;;8.80;;
18651;SDS011;9455;54.302;10.124;2022-09-29T01:32:44;11.73;;;7.73;;
18651;SDS011;9455;54.302;10.124;2022-09-29T01:35:36;12.37;;;8.20;;
18651;SDS011;9455;54.302;10.124;2022-09-29T01:38:13;13.03;;;8.57;;
18651;SDS011;9455;54.302;10.124;2022-09-29T01:40:47;13.93;;;8.23;;
18651;SDS011;9455;54.302;10.124;2022-09-29T01:43:21;14.90;;;9.00;;
18651;SDS011;9455;54.302;10.124;2022-09-29T01:45:52;14.03;;;9.23;;
18651;SDS011;9455;54.302;10.124;2022-09-29T01:48:28;11.00;;;8.40;;
18651;SDS011;9455;54.302;10.124;2022-09-29T01:50:59;13.40;;;8.37;;
18651;SDS011;9455;54.302;10.124;2022-09-29T01:53:32;14.43;;;9.10;;
18651;SDS011;9455;54.302;10.124;2022-09-29T01:56:03;13.40;;;8.67;;
18651;SDS011;9455;54.302;10.124;2022-09-29T01:58:35;15.23;;;8.23;;
18651;SDS011;9455;54.302;10.124;2022-09-29T02:01:09;13.40;;;9.10;;
18651;SDS011;9455;54.302;10.124;2022-09-29T02:03:40;14.10;;;8.77;;
18651;SDS011;9455;54.302;10.124;2022-09-29T02:06:12;14.87;;;9.37;;
18651;SDS011;9455;54.302;10.124;2022-09-29T02:08:43;14.87;;;8.90;;
18651;SDS011;9455;54.302;10.124;2022-09-29T02:11:13;11.97;;;8.73;;
18651;SDS011;9455;54.302;10.124;2022-09-29T02:13:43;12.73;;;8.73;;
18651;SDS011;9455;54.302;10.124;2022-09-29T02:16:15;13.63;;;8.87;;
18651;SDS011;9455;54.302;10.124;2022-09-29T02:18:47;15.60;;;9.50;;
18651;SDS011;9455;54.302;10.124;2022-09-29T02:21:17;15.67;;;9.33;;
18651;SDS011;9455;54.302;10.124;2022-09-29T02:23:44;18.63;;;9.87;;
18651;SDS011;9455;54.302;10.124;2022-09-29T02:26:10;14.20;;;9.47;;
18651;SDS011;9455;54.302;10.124;2022-09-29T02:28:38;14.20;;;9.47;;
18651;SDS011;9455;54.302;10.124;2022-09-29T02:31:05;14.50;;;8.90;;
18651;SDS011;9455;54.302;10.124;2022-09-29T02:33:31;18.50;;;10.10;;
18651;SDS011;9455;54.302;10.124;2022-09-29T02:36:03;12.50;;;8.83;;
18651;SDS011;9455;54.302;10.124;2022-09-29T02:38:40;14.67;;;9.33;;
18651;SDS011;9455;54.302;10.124;2022-09-29T02:41:15;14.10;;;8.97;;
18651;SDS011;9455;54.302;10.124;2022-09-29T02:43:58;21.43;;;10.80;;
18651;SDS011;9455;54.302;10.124;2022-09-29T02:46:41;15.87;;;9.17;;
18651;SDS011;9455;54.302;10.124;2022-09-29T02:49:31;17.33;;;10.07;;
18651;SDS011;9455;54.302;10.124;2022-09-29T02:52:09;13.23;;;9.73;;
18651;SDS011;9455;54.302;10.124;2022-09-29T02:54:46;19.23;;;9.17;;
18651;SDS011;9455;54.302;10.124;2022-09-29T02:57:23;15.23;;;10.20;;
18651;SDS011;9455;54.302;10.124;2022-09-29T02:59:56;19.47;;;9.67;;
18651;SDS011;9455;54.302;10.124;2022-09-29T03:02:32;15.07;;;10.00;;
18651;SDS011;9455;54.302;10.124;2022-09-29T03:04:58;17.03;;;9.47;;
18651;SDS011;9455;54.302;10.124;2022-09-29T03:07:26;18.47;;;10.37;;
18651;SDS011;9455;54.302;10.124;2022-09-29T03:09:53;19.40;;;10.50;;
18651;SDS011;9455;54.302;10.124;2022-09-29T03:12:19;14.93;;;9.63;;
18651;SDS011;9455;54.302;10.124;2022-09-29T03:14:46;15.63;;;9.20;;
18651;SDS011;9455;54.302;10.124;2022-09-29T03:17:12;16.90;;;10.17;;
18651;SDS011;9455;54.302;10.124;2022-09-29T03:19:39;22.53;;;10.27;;
18651;SDS011;9455;54.302;10.124;2022-09-29T03:22:06;16.50;;;10.03;;
18651;SDS011;9455;54.302;10.124;2022-09-29T03:24:33;18.43;;;10.73;;
18651;SDS011;9455;54.302;10.124;2022-09-29T03:27:00;16.70;;;10.07;;
18651;SDS011;9455;54.302;10.124;2022-09-29T03:29:26;19.30;;;10.57;;
18651;SDS011;9455;54.302;10.124;2022-09-29T03:31:53;15.07;;;9.27;;
18651;SDS011;9455;54.302;10.124;2022-09-29T03:34:19;15.90;;;9.13;;
18651;SDS011;9455;54.302;10.124;2022-09-29T03:36:46;18.53;;;10.37;;
18651;SDS011;9455;54.302;10.124;2022-09-29T03:39:12;17.60;;;9.77;;
18651;SDS011;9455;54.302;10.124;2022-09-29T03:41:40;15.50;;;9.37;;
18651;SDS011;9455;54.302;10.124;2022-09-29T03:44:07;16.70;;;9.47;;
18651;SDS011;9455;54.302;10.124;2022-09-29T03:46:33;17.80;;;9.83;;
18651;SDS011;9455;54.302;10.124;2022-09-29T03:49:00;14.90;;;9.70;;
18651;SDS011;9455;54.302;10.124;2022-09-29T03:51:27;19.33;;;9.77;;
18651;SDS011;9455;54.302;10.124;2022-09-29T03:53:53;16.83;;;10.10;;
18651;SDS011;9455;54.302;10.124;2022-09-29T03:56:20;19.57;;;9.93;;
18651;SDS011;9455;54.302;10.124;2022-09-29T03:58:48;16.20;;;9.47;;
18651;SDS011;9455;54.302;10.124;2022-09-29T04:01:14;21.60;;;9.67;;
18651;SDS011;9455;54.302;10.124;2022-09-29T04:03:41;17.43;;;10.57;;
18651;SDS011;9455;54.302;10.124;2022-09-29T04:06:07;15.00;;;9.23;;
18651;SDS011;9455;54.302;10.124;2022-09-29T04:08:34;15.70;;;10.10;;
18651;SDS011;9455;54.302;10.124;2022-09-29T04:11:02;15.17;;;9.13;;
18651;SDS011;9455;54.302;10.124;2022-09-29T04:13:28;16.97;;;9.33;;
18651;SDS011;9455;54.302;10.124;2022-09-29T04:15:57;15.27;;;9.77;;
18651;SDS011;9455;54.302;10.124;2022-09-29T04:18:24;20.00;;;10.50;;
18651;SDS011;9455;54.302;10.124;2022-09-29T04:20:51;19.87;;;10.13;;
18651;SDS011;9455;54.302;10.124;2022-09-29T04:23:18;15.33;;;9.67;;
18651;SDS011;9455;54.302;10.124;2022-09-29T04:25:45;25.47;;;11.07;;
18651;SDS011;9455;54.302;10.124;2022-09-29T04:28:11;16.80;;;10.30;;
18651;SDS011;9455;54.302;10.124;2022-09-29T04:30:38;14.93;;;10.03;;
18651;SDS011;9455;54.302;10.124;2022-09-29T04:33:06;18.03;;;9.97;;
18651;SDS011;9455;54.302;10.124;2022-09-29T04:35:33;20.53;;;10.67;;
18651;SDS011;9455;54.302;10.124;2022-09-29T04:38:00;18.87;;;10.27;;
18651;SDS011;9455;54.302;10.124;2022-09-29T04:40:27;18.53;;;10.50;;
18651;SDS011;9455;54.302;10.124;2022-09-29T04:42:53;21.67;;;10.67;;
18651;SDS011;9455;54.302;10.124;2022-09-29T04:45:20;21.13;;;10.47;;
18651;SDS011;9455;54.302;10.124;2022-09-29T04:47:46;20.10;;;10.30;;
18651;SDS011;9455;54.302;10.124;2022-09-29T04:50:14;17.03;;;10.40;;
18651;SDS011;9455;54.302;10.124;2022-09-29T04:52:41;20.77;;;10.77;;
18651;SDS011;9455;54.302;10.124;2022-09-29T04:55:08;19.67;;;10.77;;
18651;SDS011;9455;54.302;10.124;2022-09-29T04:57:36;19.23;;;11.20;;
18651;SDS011;9455;54.302;10.124;2022-09-29T05:00:03;15.37;;;9.07;;
18651;SDS011;9455;54.302;10.124;2022-09-29T05:02:31;17.57;;;10.23;;
18651;SDS011;9455;54.302;10.124;2022-09-29T05:04:58;20.60;;;10.23;;
18651;SDS011;9455;54.302;10.124;2022-09-29T05:07:26;21.27;;;8.87;;
18651;SDS011;9455;54.302;10.124;2022-09-29T05:09:53;18.00;;;9.57;;
18651;SDS011;9455;54.302;10.124;2022-09-29T05:12:19;15.77;;;9.77;;
18651;SDS011;9455;54.302;10.124;2022-09-29T05:14:46;21.13;;;9.27;;
18651;SDS011;9455;54.302;10.124;2022-09-29T05:17:12;17.57;;;9.57;;
18651;SDS011;9455;54.302;10.124;2022-09-29T05:19:39;16.47;;;9.03;;
18651;SDS011;9455;54.302;10.124;2022-09-29T05:22:05;15.77;;;9.60;;
18651;SDS011;9455;54.302;10.124;2022-09-29T05:24:33;17.80;;;9.80;;
18651;SDS011;9455;54.302;10.124;2022-09-29T05:26:59;16.90;;;9.80;;
18651;SDS011;9455;54.302;10.124;2022-09-29T05:29:26;18.47;;;10.23;;
18651;SDS011;9455;54.302;10.124;2022-09-29T05:31:52;43.70;;;15.70;;
18651;SDS011;9455;54.302;10.124;2022-09-29T05:34:19;49.07;;;19.10;;
18651;SDS011;9455;54.302;10.124;2022-09-29T05:36:46;19.97;;;10.83;;
18651;SDS011;9455;54.302;10.124;2022-09-29T05:39:12;17.73;;;9.20;;
18651;SDS011;9455;54.302;10.124;2022-09-29T05:41:40;18.00;;;8.70;;
18651;SDS011;9455;54.302;10.124;2022-09-29T05:44:06;15.17;;;8.60;;
18651;SDS011;9455;54.302;10.124;2022-09-29T05:46:33;19.43;;;9.67;;
18651;SDS011;9455;54.302;10.124;2022-09-29T05:49:02;16.93;;;9.63;;
18651;SDS011;9455;54.302;10.124;2022-09-29T05:51:29;16.43;;;9.50;;
18651;SDS011;9455;54.302;10.124;2022-09-29T05:53:56;15.67;;;9.20;;
18651;SDS011;9455;54.302;10.124;2022-09-29T05:56:23;18.27;;;9.37;;
18651;SDS011;9455;54.302;10.124;2022-09-29T05:58:52;16.40;;;9.10;;
18651;SDS011;9455;54.302;10.124;2022-09-29T06:01:20;17.23;;;9.13;;
18651;SDS011;9455;54.302;10.124;2022-09-29T06:03:48;13.13;;;8.37;;
18651;SDS011;9455;54.302;10.124;2022-09-29T06:06:17;19.03;;;9.30;;
18651;SDS011;9455;54.302;10.124;2022-09-29T06:08:45;14.70;;;8.23;;
18651;SDS011;9455;54.302;10.124;2022-09-29T06:11:12;16.77;;;9.27;;
18651;SDS011;9455;54.302;10.124;2022-09-29T06:13:41;15.37;;;8.87;;
18651;SDS011;9455;54.302;10.124;2022-09-29T06:16:10;15.23;;;8.50;;
18651;SDS011;9455;54.302;10.124;2022-09-29T06:18:37;20.20;;;9.03;;
18651;SDS011;9455;54.302;10.124;2022-09-29T06:21:05;20.63;;;8.73;;
18651;SDS011;9455;54.302;10.124;2022-09-29T06:23:33;14.57;;;7.97;;
18651;SDS011;9455;54.302;10.124;2022-09-29T06:26:01;16.93;;;8.67;;
18651;SDS011;9455;54.302;10.124;2022-09-29T06:28:32;14.37;;;8.80;;
18651;SDS011;9455;54.302;10.124;2022-09-29T06:30:59;15.03;;;8.73;;
18651;SDS011;9455;54.302;10.124;2022-09-29T06:33:29;17.70;;;9.07;;
18651;SDS011;9455;54.302;10.124;2022-09-29T06:35:56;18.47;;;8.70;;
18651;SDS011;9455;54.302;10.124;2022-09-29T06:38:41;18.90;;;9.07;;
18651;SDS011;9455;54.302;10.124;2022-09-29T06:41:08;18.57;;;9.50;;
18651;SDS011;9455;54.302;10.124;2022-09-29T06:43:34;19.67;;;9.77;;
18651;SDS011;9455;54.302;10.124;2022-09-29T06:46:02;22.77;;;9.50;;
18651;SDS011;9455;54.302;10.124;2022-09-29T06:48:30;19.37;;;9.27;;
18651;SDS011;9455;54.302;10.124;2022-09-29T06:50:57;20.33;;;10.40;;
18651;SDS011;9455;54.302;10.124;2022-09-29T06:53:24;18.90;;;9.47;;
18651;SDS011;9455;54.302;10.124;2022-09-29T06:55:51;21.20;;;10.30;;
18651;SDS011;9455;54.302;10.124;2022-09-29T06:58:19;21.80;;;10.57;;
18651;SDS011;9455;54.302;10.124;2022-09-29T07:00:45;20.40;;;10.30;;
18651;SDS011;9455;54.302;10.124;2022-09-29T07:03:12;22.83;;;10.13;;
18651;SDS011;9455;54.302;10.124;2022-09-29T07:05:40;21.13;;;10.13;;
18651;SDS011;9455;54.302;10.124;2022-09-29T07:08:07;22.97;;;10.33;;
18651;SDS011;9455;54.302;10.124;2022-09-29T07:10:34;22.20;;;10.13;;
18651;SDS011;9455;54.302;10.124;2022-09-29T07:13:00;20.43;;;10.77;;
18651;SDS011;9455;54.302;10.124;2022-09-29T07:15:27;23.23;;;9.93;;
18651;SDS011;9455;54.302;10.124;2022-09-29T07:17:56;19.67;;;10.67;;
18651;SDS011;9455;54.302;10.124;2022-09-29T07:20:23;26.33;;;10.80;;
18651;SDS011;9455;54.302;10.124;2022-09-29T07:22:51;23.80;;;10.80;;
18651;SDS011;9455;54.302;10.124;2022-09-29T07:25:18;21.17;;;10.30;;
18651;SDS011;9455;54.302;10.124;2022-09-29T07:27:45;28.90;;;11.30;;
18651;SDS011;9455;54.302;10.124;2022-09-29T07:30:13;28.43;;;11.90;;
18651;SDS011;9455;54.302;10.124;2022-09-29T07:32:40;20.50;;;10.23;;
18651;SDS011;9455;54.302;10.124;2022-09-29T07:35:06;21.73;;;9.67;;
18651;SDS011;9455;54.302;10.124;2022-09-29T07:37:33;20.63;;;10.97;;
18651;SDS011;9455;54.302;10.124;2022-09-29T07:40:01;26.73;;;10.43;;
18651;SDS011;9455;54.302;10.124;2022-09-29T07:42:28;21.27;;;10.70;;
18651;SDS011;9455;54.302;10.124;2022-09-29T07:44:54;21.57;;;10.77;;
18651;SDS011;9455;54.302;10.124;2022-09-29T07:47:21;22.73;;;10.67;;
18651;SDS011;9455;54.302;10.124;2022-09-29T07:49:48;19.27;;;9.57;;
18651;SDS011;9455;54.302;10.124;2022-09-29T07:52:14;20.33;;;10.57;;
18651;SDS011;9455;54.302;10.124;2022-09-29T07:54:41;24.47;;;11.67;;
18651;SDS011;9455;54.302;10.124;2022-09-29T07:57:09;23.33;;;10.93;;
18651;SDS011;9455;54.302;10.124;2022-09-29T07:59:35;20.23;;;10.40;;
18651;SDS011;9455;54.302;10.124;2022-09-29T08:02:02;22.57;;;11.27;;
18651;SDS011;9455;54.302;10.124;2022-09-29T08:04:28;21.17;;;10.57;;
18651;SDS011;9455;54.302;10.124;2022-09-29T08:06:55;20.30;;;9.87;;
18651;SDS011;9455;54.302;10.124;2022-09-29T08:09:21;19.90;;;9.77;;
18651;SDS011;9455;54.302;10.124;2022-09-29T08:11:48;18.17;;;9.23;;
18651;SDS011;9455;54.302;10.124;2022-09-29T08:14:16;14.60;;;8.80;;
18651;SDS011;9455;54.302;10.124;2022-09-29T08:16:42;20.07;;;9.23;;
18651;SDS011;9455;54.302;10.124;2022-09-29T08:19:09;20.33;;;9.57;;
18651;SDS011;9455;54.302;10.124;2022-09-29T08:21:35;19.07;;;9.03;;
18651;SDS011;9455;54.302;10.124;2022-09-29T08:24:03;20.47;;;8.33;;
18651;SDS011;9455;54.302;10.124;2022-09-29T08:26:30;13.37;;;7.40;;
18651;SDS011;9455;54.302;10.124;2022-09-29T08:28:59;13.07;;;7.27;;
18651;SDS011;9455;54.302;10.124;2022-09-29T08:31:27;14.50;;;7.50;;
18651;SDS011;9455;54.302;10.124;2022-09-29T08:33:55;12.50;;;6.87;;
18651;SDS011;9455;54.302;10.124;2022-09-29T08:36:23;14.03;;;8.00;;
18651;SDS011;9455;54.302;10.124;2022-09-29T08:38:50;15.03;;;8.13;;
18651;SDS011;9455;54.302;10.124;2022-09-29T08:41:27;10.13;;;6.80;;
18651;SDS011;9455;54.302;10.124;2022-09-29T08:44:00;14.27;;;6.67;;
18651;SDS011;9455;54.302;10.124;2022-09-29T08:46:32;13.97;;;7.17;;
18651;SDS011;9455;54.302;10.124;2022-09-29T08:49:04;11.50;;;6.00;;
18651;SDS011;9455;54.302;10.124;2022-09-29T08:51:35;10.80;;;5.67;;
18651;SDS011;9455;54.302;10.124;2022-09-29T08:54:07;8.10;;;5.53;;
18651;SDS011;9455;54.302;10.124;2022-09-29T08:56:41;5.93;;;4.67;;
18651;SDS011;9455;54.302;10.124;2022-09-29T08:59:08;6.30;;;4.70;;
18651;SDS011;9455;54.302;10.124;2022-09-29T09:01:41;6.07;;;3.70;;
18651;SDS011;9455;54.302;10.124;2022-09-29T09:04:24;6.00;;;4.60;;
18651;SDS011;9455;54.302;10.124;2022-09-29T09:07:04;7.73;;;4.40;;
18651;SDS011;9455;54.302;10.124;2022-09-29T09:15:21;5.67;;;3.13;;
18651;SDS011;9455;54.302;10.124;2022-09-29T09:18:13;3.03;;;2.73;;
18651;SDS011;9455;54.302;10.124;2022-09-29T09:20:54;2.70;;;2.50;;
18651;SDS011;9455;54.302;10.124;2022-09-29T09:23:28;2.60;;;2.40;;
18651;SDS011;9455;54.302;10.124;2022-09-29T09:26:02;2.53;;;2.00;;
18651;SDS011;9455;54.302;10.124;2022-09-29T09:28:29;2.03;;;1.77;;
18651;SDS011;9455;54.302;10.124;2022-09-29T09:31:02;1.90;;;1.80;;
18651;SDS011;9455;54.302;10.124;2022-09-29T09:33:35;2.00;;;1.90;;
18651;SDS011;9455;54.302;10.124;2022-09-29T09:36:05;2.20;;;2.00;;
18651;SDS011;9455;54.302;10.124;2022-09-29T09:38:40;4.70;;;2.20;;
18651;SDS011;9455;54.302;10.124;2022-09-29T09:41:13;2.30;;;2.20;;
18651;SDS011;9455;54.302;10.124;2022-09-29T09:43:43;3.17;;;2.27;;
18651;SDS011;9455;54.302;10.124;2022-09-29T09:46:13;2.47;;;1.67;;
18651;SDS011;9455;54.302;10.124;2022-09-29T09:48:48;1.73;;;1.67;;
18651;SDS011;9455;54.302;10.124;2022-09-29T09:51:31;1.53;;;1.53;;
18651;SDS011;9455;54.302;10.124;2022-09-29T09:54:04;1.27;;;1.27;;
18651;SDS011;9455;54.302;10.124;2022-09-29T09:56:53;2.37;;;1.60;;
18651;SDS011;9455;54.302;10.124;2022-09-29T09:59:45;0.97;;;0.97;;
18651;SDS011;9455;54.302;10.124;2022-09-29T10:02:24;2.00;;;1.33;;
18651;SDS011;9455;54.302;10.124;2022-09-29T10:04:52;1.83;;;1.00;;
18651;SDS011;9455;54.302;10.124;2022-09-29T10:07:22;1.13;;;1.13;;
18651;SDS011;9455;54.302;10.124;2022-09-29T10:09:50;1.57;;;1.30;;
18651;SDS011;9455;54.302;10.124;2022-09-29T10:12:18;1.50;;;1.00;;
18651;SDS011;9455;54.302;10.124;2022-09-29T10:14:48;1.30;;;1.30;;
18651;SDS011;9455;54.302;10.124;2022-09-29T10:17:18;1.57;;;1.47;;
18651;SDS011;9455;54.302;10.124;2022-09-29T10:19:54;1.60;;;1.50;;
18651;SDS011;9455;54.302;10.124;2022-09-29T10:22:22;2.10;;;1.40;;
18651;SDS011;9455;54.302;10.124;2022-09-29T10:24:50;2.23;;;1.70;;
18651;SDS011;9455;54.302;10.124;2022-09-29T10:27:21;2.27;;;1.67;;
18651;SDS011;9455;54.302;10.124;2022-09-29T10:29:50;1.50;;;1.40;;
18651;SDS011;9455;54.302;10.124;2022-09-29T10:32:20;2.20;;;1.50;;
18651;SDS011;9455;54.302;10.124;2022-09-29T10:34:51;2.00;;;1.90;;
18651;SDS011;9455;54.302;10.124;2022-09-29T10:37:31;1.80;;;1.70;;
18651;SDS011;9455;54.302;10.124;2022-09-29T10:40:08;2.00;;;1.90;;
18651;SDS011;9455;54.302;10.124;2022-09-29T10:42:41;1.77;;;1.67;;
18651;SDS011;9455;54.302;10.124;2022-09-29T10:45:11;2.10;;;2.00;;
18651;SDS011;9455;54.302;10.124;2022-09-29T10:47:39;1.80;;;1.70;;
18651;SDS011;9455;54.302;10.124;2022-09-29T10:50:11;3.10;;;2.10;;
18651;SDS011;9455;54.302;10.124;2022-09-29T10:52:41;4.10;;;2.00;;
18651;SDS011;9455;54.302;10.124;2022-09-29T10:55:14;1.80;;;1.70;;
18651;SDS011;9455;54.302;10.124;2022-09-29T10:57:43;8.10;;;1.63;;
18651;SDS011;9455;54.302;10.124;2022-09-29T11:00:23;1.90;;;1.80;;
18651;SDS011;9455;54.302;10.124;2022-09-29T11:02:51;1.77;;;1.50;;
18651;SDS011;9455;54.302;10.124;2022-09-29T11:05:20;1.73;;;1.63;;
18651;SDS011;9455;54.302;10.124;2022-09-29T11:07:49;2.40;;;1.60;;
18651;SDS011;9455;54.302;10.124;2022-09-29T11:13:27;1.80;;;0.97;;
18651;SDS011;9455;54.302;10.124;2022-09-29T11:16:02;2.87;;;1.80;;
18651;SDS011;9455;54.302;10.124;2022-09-29T11:18:31;4.03;;;1.13;;
18651;SDS011;9455;54.302;10.124;2022-09-29T11:21:04;1.53;;;1.53;;
18651;SDS011;9455;54.302;10.124;2022-09-29T11:23:47;1.43;;;1.03;;
18651;SDS011;9455;54.302;10.124;2022-09-29T11:26:31;4.90;;;1.20;;
18651;SDS011;9455;54.302;10.124;2022-09-29T11:29:08;1.00;;;1.00;;
18651;SDS011;9455;54.302;10.124;2022-09-29T11:31:59;1.43;;;1.43;;
18651;SDS011;9455;54.302;10.124;2022-09-29T11:34:40;1.50;;;1.40;;
18651;SDS011;9455;54.302;10.124;2022-09-29T11:37:34;1.10;;;1.10;;
18651;SDS011;9455;54.302;10.124;2022-09-29T11:40:10;1.00;;;1.00;;
18651;SDS011;9455;54.302;10.124;2022-09-29T11:42:47;1.00;;;1.00;;
18651;SDS011;9455;54.302;10.124;2022-09-29T11:45:27;0.97;;;0.97;;
18651;SDS011;9455;54.302;10.124;2022-09-29T11:48:23;1.17;;;1.07;;
18651;SDS011;9455;54.302;10.124;2022-09-29T11:51:00;1.13;;;1.13;;
18651;SDS011;9455;54.302;10.124;2022-09-29T11:53:41;1.23;;;1.23;;
18651;SDS011;9455;54.302;10.124;2022-09-29T11:56:29;1.33;;;1.30;;
18651;SDS011;9455;54.302;10.124;2022-09-29T11:59:06;2.40;;;1.77;;
18651;SDS011;9455;54.302;10.124;2022-09-29T12:01:48;1.90;;;1.80;;
18651;SDS011;9455;54.302;10.124;2022-09-29T12:04:29;2.47;;;2.00;;
18651;SDS011;9455;54.302;10.124;2022-09-29T12:07:04;1.90;;;1.80;;
18651;SDS011;9455;54.302;10.124;2022-09-29T12:09:55;1.80;;;1.70;;
18651;SDS011;9455;54.302;10.124;2022-09-29T12:12:34;2.40;;;2.30;;
18651;SDS011;9455;54.302;10.124;2022-09-29T12:15:25;4.80;;;2.43;;
18651;SDS011;9455;54.302;10.124;2022-09-29T12:18:01;1.77;;;1.67;;
18651;SDS011;9455;54.302;10.124;2022-09-29T12:20:34;1.43;;;1.43;;
18651;SDS011;9455;54.302;10.124;2022-09-29T12:23:03;1.80;;;1.70;;
18651;SDS011;9455;54.302;10.124;2022-09-29T12:25:38;1.60;;;1.50;;
18651;SDS011;9455;54.302;10.124;2022-09-29T12:28:11;1.63;;;1.53;;
18651;SDS011;9455;54.302;10.124;2022-09-29T12:30:43;2.23;;;2.00;;
18651;SDS011;9455;54.302;10.124;2022-09-29T12:33:16;1.47;;;1.47;;
18651;SDS011;9455;54.302;10.124;2022-09-29T12:35:49;3.67;;;1.50;;
18651;SDS011;9455;54.302;10.124;2022-09-29T12:38:27;1.30;;;1.30;;
18651;SDS011;9455;54.302;10.124;2022-09-29T12:41:04;1.50;;;1.40;;
18651;SDS011;9455;54.302;10.124;2022-09-29T12:43:38;4.07;;;2.17;;
18651;SDS011;9455;54.302;10.124;2022-09-29T12:46:13;4.83;;;1.20;;
18651;SDS011;9455;54.302;10.124;2022-09-29T12:48:45;2.00;;;1.40;;
18651;SDS011;9455;54.302;10.124;2022-09-29T12:51:23;1.70;;;1.63;;
18651;SDS011;9455;54.302;10.124;2022-09-29T12:53:59;1.03;;;1.03;;
18651;SDS011;9455;54.302;10.124;2022-09-29T12:56:35;1.30;;;1.30;;
18651;SDS011;9455;54.302;10.124;2022-09-29T12:59:05;0.93;;;0.93;;
18651;SDS011;9455;54.302;10.124;2022-09-29T13:01:38;0.87;;;0.87;;
18651;SDS011;9455;54.302;10.124;2022-09-29T13:10:28;0.80;;;0.80;;
18651;SDS011;9455;54.302;10.124;2022-09-29T13:13:15;0.90;;;0.90;;
18651;SDS011;9455;54.302;10.124;2022-09-29T13:15:57;1.23;;;0.90;;
18651;SDS011;9455;54.302;10.124;2022-09-29T13:18:41;1.90;;;0.77;;
18651;SDS011;9455;54.302;10.124;2022-09-29T13:21:24;0.73;;;0.67;;
18651;SDS011;9455;54.302;10.124;2022-09-29T13:24:08;0.80;;;0.80;;
18651;SDS011;9455;54.302;10.124;2022-09-29T13:29:44;0.70;;;0.70;;
18651;SDS011;9455;54.302;10.124;2022-09-29T13:32:14;0.80;;;0.80;;
18651;SDS011;9455;54.302;10.124;2022-09-29T13:34:45;0.80;;;0.80;;
18651;SDS011;9455;54.302;10.124;2022-09-29T13:37:15;2.87;;;0.90;;
18651;SDS011;9455;54.302;10.124;2022-09-29T13:39:48;0.80;;;0.80;;
18651;SDS011;9455;54.302;10.124;2022-09-29T13:51:21;1.30;;;1.20;;
18651;SDS011;9455;54.302;10.124;2022-09-29T13:54:22;1.23;;;1.13;;
18651;SDS011;9455;54.302;10.124;2022-09-29T14:00:14;2.20;;;0.90;;
18651;SDS011;9455;54.302;10.124;2022-09-29T14:02:47;0.80;;;0.80;;
18651;SDS011;9455;54.302;10.124;2022-09-29T14:05:35;0.83;;;0.77;;
18651;SDS011;9455;54.302;10.124;2022-09-29T14:08:06;1.83;;;0.87;;
18651;SDS011;9455;54.302;10.124;2022-09-29T14:10:50;0.73;;;0.73;;
18651;SDS011;9455;54.302;10.124;2022-09-29T14:13:23;0.70;;;0.70;;
18651;SDS011;9455;54.302;10.124;2022-09-29T14:15:56;1.27;;;0.63;;
18651;SDS011;9455;54.302;10.124;2022-09-29T14:18:34;1.23;;;1.13;;
18651;SDS011;9455;54.302;10.124;2022-09-29T14:21:04;0.80;;;0.80;;
18651;SDS011;9455;54.302;10.124;2022-09-29T14:23:47;0.80;;;0.80;;
18651;SDS011;9455;54.302;10.124;2022-09-29T14:29:12;1.10;;;1.10;;
18651;SDS011;9455;54.302;10.124;2022-09-29T14:31:43;1.10;;;0.80;;
18651;SDS011;9455;54.302;10.124;2022-09-29T14:34:16;2.27;;;1.43;;
18651;SDS011;9455;54.302;10.124;2022-09-29T14:36:46;1.20;;;1.20;;
18651;SDS011;9455;54.302;10.124;2022-09-29T14:39:14;1.73;;;0.90;;
18651;SDS011;9455;54.302;10.124;2022-09-29T14:41:41;5.50;;;4.20;;
18651;SDS011;9455;54.302;10.124;2022-09-29T14:44:09;1.30;;;1.20;;
18651;SDS011;9455;54.302;10.124;2022-09-29T14:46:45;0.97;;;0.97;;
18651;SDS011;9455;54.302;10.124;2022-09-29T14:49:54;0.83;;;0.83;;
18651;SDS011;9455;54.302;10.124;2022-09-29T14:52:49;1.00;;;1.00;;
18651;SDS011;9455;54.302;10.124;2022-09-29T14:55:28;1.00;;;1.00;;
18651;SDS011;9455;54.302;10.124;2022-09-29T14:58:06;1.30;;;0.93;;
18651;SDS011;9455;54.302;10.124;2022-09-29T15:00:46;4.63;;;1.77;;
18651;SDS011;9455;54.302;10.124;2022-09-29T15:03:23;1.90;;;1.80;;
18651;SDS011;9455;54.302;10.124;2022-09-29T15:06:04;2.03;;;1.90;;
18651;SDS011;9455;54.302;10.124;2022-09-29T15:08:36;4.57;;;1.60;;
18651;SDS011;9455;54.302;10.124;2022-09-29T15:11:04;1.73;;;1.63;;
18651;SDS011;9455;54.302;10.124;2022-09-29T15:13:49;1.10;;;1.10;;
18651;SDS011;9455;54.302;10.124;2022-09-29T15:16:17;1.03;;;1.03;;
18651;SDS011;9455;54.302;10.124;2022-09-29T15:18:56;1.13;;;1.13;;
18651;SDS011;9455;54.302;10.124;2022-09-29T15:21:46;1.50;;;1.07;;
18651;SDS011;9455;54.302;10.124;2022-09-29T15:24:27;1.47;;;1.47;;
18651;SDS011;9455;54.302;10.124;2022-09-29T15:27:04;2.73;;;1.60;;
18651;SDS011;9455;54.302;10.124;2022-09-29T15:29:35;1.37;;;1.37;;
18651;SDS011;9455;54.302;10.124;2022-09-29T15:32:01;1.43;;;1.23;;
18651;SDS011;9455;54.302;10.124;2022-09-29T15:34:29;1.30;;;1.30;;
18651;SDS011;9455;54.302;10.124;2022-09-29T15:36:58;5.70;;;1.40;;
18651;SDS011;9455;54.302;10.124;2022-09-29T15:39:39;1.37;;;1.37;;
18651;SDS011;9455;54.302;10.124;2022-09-29T15:42:12;1.50;;;1.40;;
18651;SDS011;9455;54.302;10.124;2022-09-29T15:44:48;1.73;;;1.60;;